首页
METAR-TAF:

METAR-TAF

机场 :

阿瓦士, 伊朗

纬度: 31-20N, 经度: 048-40E, 海拔: 20米

当前天气观测

该预报发布于17分钟前的16:00 UTC
风速2节,风向西转西南
温度 14°C
湿度 72%
气压 1012 hPa
能见度10公里或以上
散云层高于4000英尺
多云层高于10000英尺

METAR: OIAW 121600Z 24002KT 9999 SCT040 BKN100 14/09 Q1012

时间: 19:47 (16:17 UTC)

预报

该预报发布于4小时和27分钟前的11:50 UTC
预报有效从12日的 12点(UTC)到 13日的 18点(UTC)
风速8节,风向西转西北
能見度: 8000
成为
从 12日的 20点(UTC)到 12日的 22点(UTC)
少量云层高于3000英尺, 积雨云.
散云层高于3500英尺
阴天层高于10000英尺
短暂存在
从 13日的 00点(UTC)到 13日的 05点(UTC)
能見度: 4000
散云层高于3000英尺, 积雨云.
散云层高于3500英尺
阴天层高于10000英尺
雷暴, 雨
成为
从 13日的 10点(UTC)到 13日的 11点(UTC)
风速12节,风向东转东南
成为
从 13日的 13点(UTC)到 13日的 14点(UTC)
少量云层高于2500英尺
散云层高于3000英尺
多云层高于9000英尺

TAF: OIAW 121150Z 1212/1318 30008KT 8000 NSC BECMG 1220/1222 FEW030CB SCT035 OVC100 TEMPO 1300/1305 4000 TSRA SCT030CB SCT035 OVC100 BECMG 1310/1311 12012KT BECMG 1313/1314 FEW025 SCT030 BKN090

超过4000个机场的气象观测和天气预报(METAR&TAF报告)。

可查询的气象台以黄色和红色小点在地图上表示。

将鼠标移到小点上方,可查看气象台名称。

然后点击查看天气观测和预报。

如需切换地图:点击带黑十字的绿色按钮放大地图;点击带横线的绿色按钮缩小地图;或者点击绿色箭头查看邻近地区的地图。


METAR-TAF: